Time;durP1;ratioP1;P1;durP2;ratioP2;P2;SDS_P1;SDS_P2;PMS_P1;PMS_P2;Temp;Humidity;BMP_temperature;BMP_pressure;BME280_temperature;BME280_humidity;BME280_pressure;Samples;Min_cycle;Max_cycle;Signal;HPM_P1;HPM_P2
2023/09/18 00:00:35;;;;;;;12.07;7.55;;;;;;;18.50;93.60;101105.66;2066560;28;20030;-69
2023/09/18 00:01:39;;;;;;;13.05;7.70;;;;;;;18.50;93.83;101094.75;2067714;28;20034;-69
2023/09/18 00:02:41;;;;;;;18.08;7.72;;;;;;;18.51;93.72;101101.03;2074348;28;20100;-69
2023/09/18 00:03:43;;;;;;;12.23;7.80;;;;;;;18.49;93.97;101097.81;2075005;28;20168;-69
2023/09/18 00:04:47;;;;;;;16.60;8.27;;;;;;;18.49;93.92;101097.81;2074600;28;20800;-70
2023/09/18 00:05:49;;;;;;;14.15;8.00;;;;;;;18.49;94.07;101100.53;2076828;28;20927;-70
2023/09/18 00:06:51;;;;;;;13.20;8.18;;;;;;;18.49;94.12;101098.59;2074720;28;20050;-70
2023/09/18 00:07:53;;;;;;;12.55;7.80;;;;;;;18.49;94.30;101103.25;2074707;28;20149;-69
2023/09/18 00:08:54;;;;;;;17.50;7.57;;;;;;;18.48;94.36;101091.56;2090888;28;20911;-69
2023/09/18 00:09:56;;;;;;;12.70;7.82;;;;;;;18.47;94.58;101089.97;2090151;28;20058;-70
2023/09/18 00:11:00;;;;;;;12.75;8.10;;;;;;;18.48;94.51;101093.50;2090589;28;20033;-69
2023/09/18 00:12:02;;;;;;;14.82;7.90;;;;;;;18.48;94.66;101090.78;2091593;28;20021;-69
2023/09/18 00:13:04;;;;;;;13.60;8.25;;;;;;;18.46;94.37;101095.72;2081312;28;20052;-70
2023/09/18 00:14:05;;;;;;;16.02;8.05;;;;;;;18.45;94.87;101094.94;2082786;28;20796;-69
2023/09/18 00:15:09;;;;;;;12.00;8.43;;;;;;;18.45;94.83;101096.84;2074254;28;20035;-69
2023/09/18 00:16:15;;;;;;;21.73;7.90;;;;;;;18.45;94.91;101102.31;2082755;28;20018;-69
2023/09/18 00:17:19;;;;;;;13.57;7.88;;;;;;;18.45;94.88;101102.31;2082730;28;20033;-69
2023/09/18 00:18:21;;;;;;;13.00;7.80;;;;;;;18.43;95.15;101099.09;2083147;28;20746;-69
2023/09/18 00:19:40;;;;;;;13.07;8.18;;;;;;;18.43;95.09;101099.09;2082863;28;21726;-69
2023/09/18 00:20:42;;;;;;;16.95;7.53;;;;;;;18.43;95.14;101088.19;2075055;28;20070;-69
2023/09/18 00:21:47;;;;;;;14.45;8.13;;;;;;;18.44;95.05;101092.50;2082858;28;20040;-69
2023/09/18 00:22:49;;;;;;;12.45;7.65;;;;;;;18.43;95.23;101097.16;2074454;28;20042;-69
2023/09/18 00:23:53;;;;;;;13.70;7.35;;;;;;;18.45;95.11;101088.69;2066365;28;20881;-69
2023/09/18 00:24:55;;;;;;;15.63;7.40;;;;;;;18.45;95.16;101083.25;2066762;28;20034;-70
2023/09/18 00:25:57;;;;;;;15.23;8.45;;;;;;;18.46;95.18;101090.28;2066414;28;20027;-69
2023/09/18 00:26:59;;;;;;;13.25;8.30;;;;;;;18.46;95.12;101096.53;2074606;28;20026;-69
2023/09/18 00:28:04;;;;;;;14.35;8.07;;;;;;;18.45;95.30;101089.47;2076529;28;20792;-69
2023/09/18 00:29:07;;;;;;;18.45;7.82;;;;;;;18.45;95.41;101097.66;2075207;28;20136;-69
2023/09/18 00:30:09;;;;;;;13.00;7.95;;;;;;;18.43;95.46;101088.19;2066222;28;20157;-69
2023/09/18 00:31:10;;;;;;;13.45;8.15;;;;;;;18.44;95.85;101095.22;2066792;28;20094;-69
2023/09/18 00:32:15;;;;;;;12.25;7.55;;;;;;;18.44;95.63;101089.78;2082866;28;20121;-69
2023/09/18 00:33:37;;;;;;;12.60;8.30;;;;;;;18.43;95.79;101097.16;2074404;28;20030;-69
2023/09/18 00:34:50;;;;;;;16.20;8.40;;;;;;;18.44;95.91;101092.50;2082911;28;20068;-68
2023/09/18 00:35:54;;;;;;;11.77;7.70;;;;;;;18.44;95.76;101089.78;2066293;28;20026;-69
2023/09/18 00:36:59;;;;;;;18.52;8.18;;;;;;;18.44;95.75;101081.63;2059835;28;20045;-68
2023/09/18 00:38:03;;;;;;;15.40;7.97;;;;;;;18.44;95.68;101089.78;2082969;28;20876;-69
2023/09/18 00:39:11;;;;;;;14.70;8.35;;;;;;;18.41;95.89;101090.41;2065761;28;20895;-69
2023/09/18 00:40:19;;;;;;;13.45;8.50;;;;;;;18.39;95.92;101085.31;2046368;28;20972;-69
2023/09/18 00:41:21;;;;;;;16.05;8.20;;;;;;;18.40;95.96;101091.56;2059659;28;20036;-69
2023/09/18 00:42:27;;;;;;;16.98;9.00;;;;;;;18.38;95.82;101083.72;2060142;28;20075;-68
2023/09/18 00:43:29;;;;;;;13.10;7.82;;;;;;;18.37;95.73;101090.25;2066281;28;20027;-68
2023/09/18 00:44:31;;;;;;;13.35;8.02;;;;;;;18.39;95.86;101081.78;2074574;28;20026;-69
2023/09/18 00:45:41;;;;;;;18.48;8.95;;;;;;;18.38;95.72;101080.16;2075361;28;20034;-69
2023/09/18 00:46:44;;;;;;;16.13;8.80;;;;;;;18.37;95.89;101092.19;2075456;28;20077;-68
2023/09/18 00:47:51;;;;;;;18.77;8.82;;;;;;;18.37;95.91;101084.03;2066846;28;20043;-68
2023/09/18 00:48:53;;;;;;;15.80;9.13;;;;;;;18.36;96.09;101085.16;2067192;28;20027;-69
2023/09/18 00:50:00;;;;;;;18.27;9.15;;;;;;;18.36;96.06;101077.78;2074694;28;20995;-69
2023/09/18 00:51:02;;;;;;;15.07;9.00;;;;;;;18.37;96.08;101078.56;2074086;28;20081;-69
2023/09/18 00:52:08;;;;;;;18.13;9.10;;;;;;;18.38;96.10;101085.63;2066826;28;20976;-68
2023/09/18 00:53:13;;;;;;;14.95;9.23;;;;;;;18.36;95.87;101077.78;2075146;28;20061;-69
2023/09/18 00:54:18;;;;;;;14.60;8.55;;;;;;;18.38;96.09;101082.88;2074208;28;20141;-69
2023/09/18 00:55:22;;;;;;;17.60;8.65;;;;;;;18.37;96.25;101076.66;2067137;28;20940;-69
2023/09/18 00:56:24;;;;;;;25.70;8.95;;;;;;;18.36;96.27;101074.25;2074822;28;20766;-69
2023/09/18 00:57:25;;;;;;;22.10;11.15;;;;;;;18.39;96.27;101076.34;2066158;28;20031;-69
2023/09/18 00:58:29;;;;;;;16.13;8.90;;;;;;;18.40;96.17;101077.94;2065070;28;20110;-69
2023/09/18 00:59:32;;;;;;;13.88;8.95;;;;;;;18.38;96.11;101069.28;2074134;28;20038;-69
2023/09/18 01:00:35;;;;;;;13.95;8.80;;;;;;;18.39;96.37;101076.34;2066658;28;20102;-69
2023/09/18 01:01:37;;;;;;;15.60;9.57;;;;;;;18.40;96.34;101077.94;2082352;28;20049;-68
2023/09/18 01:02:38;;;;;;;16.00;9.93;;;;;;;18.39;96.50;101079.88;2090584;28;20017;-69
2023/09/18 01:03:40;;;;;;;15.82;9.63;;;;;;;18.40;96.55;101076.00;2074134;28;20034;-69
2023/09/18 01:04:50;;;;;;;15.23;9.65;;;;;;;18.40;96.67;101077.94;2058200;28;20035;-69
2023/09/18 01:05:55;;;;;;;19.05;9.95;;;;;;;18.42;96.75;101081.16;2067280;28;20157;-69
2023/09/18 01:06:58;;;;;;;15.48;9.50;;;;;;;18.41;96.82;101080.34;2066852;28;20026;-68
2023/09/18 01:08:00;;;;;;;17.80;10.13;;;;;;;18.40;96.74;101075.22;2073966;28;20057;-69
2023/09/18 01:09:11;;;;;;;17.30;9.35;;;;;;;18.40;96.79;101077.94;2065975;28;20030;-68
2023/09/18 01:10:16;;;;;;;18.92;10.55;;;;;;;18.39;96.94;101077.13;2075529;28;20042;-69
2023/09/18 01:11:37;;;;;;;16.25;9.63;;;;;;;18.40;96.98;101075.22;2066261;28;20861;-69
2023/09/18 01:13:00;;;;;;;18.77;10.10;;;;;;;18.40;97.00;101077.94;2085597;28;20025;-69
2023/09/18 01:14:42;;;;;;;18.45;10.88;;;;;;;18.40;96.82;101076.00;2081685;28;20025;-69
2023/09/18 01:16:04;;;;;;;19.42;10.07;;;;;;;18.39;97.10;101066.25;2071538;28;20983;-69
2023/09/18 01:17:10;;;;;;;18.27;10.63;;;;;;;18.39;97.12;101068.19;2080466;28;20018;-68
2023/09/18 01:18:32;;;;;;;17.95;10.60;;;;;;;18.40;97.12;101072.50;2082266;28;20036;-69
2023/09/18 01:19:46;;;;;;;19.08;10.70;;;;;;;18.39;97.27;101070.91;2082013;28;20042;-69
2023/09/18 01:20:50;;;;;;;17.27;10.57;;;;;;;18.41;97.24;101068.66;2076140;28;20137;-69
2023/09/18 01:22:01;;;;;;;20.05;10.38;;;;;;;18.42;97.24;101070.25;2073741;28;20870;-69
2023/09/18 01:23:06;;;;;;;19.10;10.27;;;;;;;18.39;97.12;101051.84;2074066;28;20030;-70
2023/09/18 01:24:10;;;;;;;20.17;10.63;;;;;;;18.42;96.96;101054.72;2066236;28;20142;-69
2023/09/18 01:25:14;;;;;;;17.98;9.82;;;;;;;18.41;97.02;101055.84;2066671;28;20030;-69
2023/09/18 01:26:16;;;;;;;21.00;12.27;;;;;;;18.44;97.06;101057.94;2057964;28;20051;-69
2023/09/18 01:27:19;;;;;;;22.25;10.80;;;;;;;18.44;96.94;101054.38;2066159;28;20066;-69
2023/09/18 01:28:21;;;;;;;22.27;11.60;;;;;;;18.45;97.03;101053.28;2073174;28;20038;-69
2023/09/18 01:29:25;;;;;;;19.63;10.85;;;;;;;18.45;97.02;101053.28;2066168;28;20038;-69
2023/09/18 01:30:27;;;;;;;20.40;10.55;;;;;;;18.45;97.03;101047.84;2074871;28;20026;-69
2023/09/18 01:31:29;;;;;;;18.58;10.50;;;;;;;18.45;97.01;101048.63;2073913;28;20030;-69
2023/09/18 01:32:32;;;;;;;25.10;11.13;;;;;;;18.44;97.19;101049.78;2065989;28;20062;-69
2023/09/18 01:33:34;;;;;;;18.33;10.82;;;;;;;18.44;97.24;101055.22;2082753;28;20120;-69
2023/09/18 01:34:47;;;;;;;20.40;11.02;;;;;;;18.44;97.34;101048.94;2065590;28;20889;-69
2023/09/18 01:35:54;;;;;;;21.52;10.82;;;;;;;18.44;97.28;101044.31;2062557;28;20146;-69
2023/09/18 01:36:58;;;;;;;22.88;10.50;;;;;;;18.44;97.34;101048.94;2058119;28;20059;-69
2023/09/18 01:38:00;;;;;;;17.92;10.45;;;;;;;18.44;97.12;101047.06;2066136;28;20033;-69
2023/09/18 01:39:02;;;;;;;20.55;10.95;;;;;;;18.44;97.31;101041.59;2073450;28;20061;-69
2023/09/18 01:40:12;;;;;;;19.33;10.65;;;;;;;18.44;97.34;101035.34;2075476;28;20059;-69
2023/09/18 01:41:14;;;;;;;19.67;11.15;;;;;;;18.45;97.25;101042.41;2082102;28;20053;-68
2023/09/18 01:42:15;;;;;;;21.25;10.85;;;;;;;18.45;97.22;101036.94;2081978;28;20034;-69
2023/09/18 01:43:17;;;;;;;16.77;8.90;;;;;;;18.46;97.17;101042.06;2073788;28;20082;-69
2023/09/18 01:44:18;;;;;;;22.70;11.10;;;;;;;18.47;97.31;101045.59;2081947;28;20038;-69
2023/09/18 01:45:21;;;;;;;22.60;11.13;;;;;;;18.46;97.04;101038.53;2082051;28;20831;-69
2023/09/18 01:46:26;;;;;;;21.17;10.93;;;;;;;18.46;97.15;101033.09;2082229;28;20076;-69
2023/09/18 01:47:28;;;;;;;18.20;10.50;;;;;;;18.47;97.16;101035.53;2065861;28;20051;-69
2023/09/18 01:48:30;;;;;;;22.27;11.45;;;;;;;18.48;97.01;101031.66;2066163;28;20031;-69
2023/09/18 01:49:36;;;;;;;18.25;10.93;;;;;;;18.49;96.97;101037.91;2082136;28;20096;-69
2023/09/18 01:50:40;;;;;;;18.83;10.48;;;;;;;18.49;97.01;101037.91;2098751;28;20033;-69
2023/09/18 01:51:41;;;;;;;21.73;10.73;;;;;;;18.49;97.05;101030.53;2090029;28;20036;-69
2023/09/18 01:52:48;;;;;;;22.38;11.13;;;;;;;18.49;97.06;101030.53;2074681;28;20141;-69
2023/09/18 01:53:53;;;;;;;26.58;11.80;;;;;;;18.50;96.86;101025.88;2075413;28;20042;-69
2023/09/18 01:54:54;;;;;;;17.00;10.57;;;;;;;18.50;97.12;101025.88;2074453;28;20907;-69
2023/09/18 01:56:02;;;;;;;20.27;11.07;;;;;;;18.49;97.18;101024.28;2066945;28;20027;-69
2023/09/18 01:57:07;;;;;;;18.38;10.82;;;;;;;18.49;97.15;101024.28;2058062;28;20102;-69
2023/09/18 01:58:09;;;;;;;21.85;11.20;;;;;;;18.47;97.51;101029.25;2067306;28;20822;-69
2023/09/18 01:59:11;;;;;;;21.48;10.95;;;;;;;18.46;97.55;101024.94;2074827;28;20058;-69
2023/09/18 02:00:15;;;;;;;19.42;10.80;;;;;;;18.45;97.63;101015.97;2073802;28;20058;-69
2023/09/18 02:01:16;;;;;;;20.73;11.18;;;;;;;18.45;97.55;101021.41;2065326;28;20038;-69
2023/09/18 02:02:20;;;;;;;18.45;10.32;;;;;;;18.45;97.88;101010.53;2066864;28;20148;-69
2023/09/18 02:03:22;;;;;;;19.42;11.07;;;;;;;18.45;97.63;101009.72;2073949;28;20038;-69
2023/09/18 02:04:25;;;;;;;19.88;11.32;;;;;;;18.46;97.82;101022.22;2073868;28;20050;-69
2023/09/18 02:05:27;;;;;;;18.52;10.75;;;;;;;18.45;97.89;101009.72;2082024;28;20034;-68
2023/09/18 02:06:28;;;;;;;16.42;9.93;;;;;;;18.44;98.07;101019.00;2081007;28;20133;-68
2023/09/18 02:07:31;;;;;;;17.40;11.00;;;;;;;18.42;98.18;101013.88;2082210;28;20025;-68
2023/09/18 02:08:33;;;;;;;19.42;10.93;;;;;;;18.43;98.21;101014.69;2073650;28;20039;-69
2023/09/18 02:09:35;;;;;;;19.25;10.63;;;;;;;18.44;98.18;101008.09;2065803;28;20067;-68
2023/09/18 02:10:37;;;;;;;21.17;10.68;;;;;;;18.36;98.18;100998.03;2065419;28;20047;-68
2023/09/18 02:11:45;;;;;;;20.08;11.02;;;;;;;18.46;98.17;101009.41;2074184;28;20042;-69
2023/09/18 02:12:47;;;;;;;17.35;10.40;;;;;;;18.46;98.03;101011.31;2081762;28;20030;-69
2023/09/18 02:13:49;;;;;;;20.00;10.55;;;;;;;18.46;98.13;101012.13;2073160;28;20038;-69
2023/09/18 02:14:52;;;;;;;18.33;9.93;;;;;;;18.46;98.21;101011.31;2073442;28;20034;-69
2023/09/18 02:15:55;;;;;;;20.70;10.55;;;;;;;18.46;98.11;101003.94;2066039;28;20085;-68
2023/09/18 02:17:12;;;;;;;18.38;10.27;;;;;;;18.46;98.17;101003.16;2081909;28;20064;-69
2023/09/18 02:18:15;;;;;;;19.83;10.57;;;;;;;18.46;98.23;101005.88;2081263;28;20042;-69
2023/09/18 02:19:17;;;;;;;18.45;10.48;;;;;;;18.46;98.24;101006.66;2065263;28;20041;-69
2023/09/18 02:20:20;;;;;;;20.02;10.32;;;;;;;18.45;98.25;101004.28;2058138;28;20162;-68
2023/09/18 02:21:24;;;;;;;16.27;10.25;;;;;;;18.45;98.29;101004.28;2057385;28;21208;-69
2023/09/18 02:22:25;;;;;;;18.90;10.40;;;;;;;18.45;98.43;101005.06;2073600;28;20023;-68
2023/09/18 02:23:29;;;;;;;17.65;10.43;;;;;;;18.44;98.38;101005.38;2072756;28;20948;-68
2023/09/18 02:24:31;;;;;;;20.52;9.82;;;;;;;18.45;98.48;100998.84;2066171;28;20038;-67
2023/09/18 02:25:40;;;;;;;22.58;11.20;;;;;;;18.45;98.44;101004.28;2065749;28;20038;-69
2023/09/18 02:26:45;;;;;;;18.05;10.23;;;;;;;18.44;98.61;100999.94;2067776;28;20023;-69
2023/09/18 02:27:51;;;;;;;20.33;10.20;;;;;;;18.42;98.77;101002.19;2058468;28;20937;-70
2023/09/18 02:28:57;;;;;;;25.75;10.23;;;;;;;18.42;98.74;101003.00;2059484;28;20142;-69
2023/09/18 02:29:59;;;;;;;17.35;9.70;;;;;;;18.42;98.81;101003.00;2066519;28;20983;-69
2023/09/18 02:31:01;;;;;;;17.40;9.82;;;;;;;18.42;98.68;101005.72;2065700;28;20118;-69
2023/09/18 02:32:04;;;;;;;19.50;9.43;;;;;;;18.42;98.71;101002.19;2073893;28;20023;-70
2023/09/18 02:33:13;;;;;;;16.85;9.77;;;;;;;18.42;98.77;100999.47;2081688;28;20065;-70
2023/09/18 02:34:21;;;;;;;17.98;10.50;;;;;;;18.40;98.95;101001.72;2073241;28;21185;-69
2023/09/18 02:35:23;;;;;;;14.43;8.43;;;;;;;18.40;99.12;100996.25;2068136;28;20049;-69
2023/09/18 02:36:31;;;;;;;16.00;9.27;;;;;;;18.40;99.01;101001.72;2065799;28;20130;-69
2023/09/18 02:37:37;;;;;;;13.52;8.40;;;;;;;18.40;98.96;101001.72;2067655;28;20065;-69
2023/09/18 02:38:38;;;;;;;15.00;8.43;;;;;;;18.40;99.06;101001.72;2064760;28;20817;-69
2023/09/18 02:39:40;;;;;;;18.23;9.68;;;;;;;18.41;99.07;101003.31;2072925;28;20022;-69
2023/09/18 02:40:42;;;;;;;14.85;8.60;;;;;;;18.41;98.96;101003.31;2081143;28;20847;-70
2023/09/18 02:41:44;;;;;;;13.18;8.52;;;;;;;18.41;99.00;101003.31;2064689;28;20031;-69
2023/09/18 02:42:47;;;;;;;14.63;8.75;;;;;;;18.40;98.92;101005.22;2075506;28;20030;-68
2023/09/18 02:43:50;;;;;;;16.33;8.63;;;;;;;18.40;98.96;101004.44;2082646;28;20867;-69
2023/09/18 02:44:52;;;;;;;14.63;8.10;;;;;;;18.41;98.86;101003.31;2082744;28;20878;-73
2023/09/18 02:45:55;;;;;;;15.23;7.63;;;;;;;18.41;98.91;100995.13;2071659;28;20046;-70
2023/09/18 02:46:59;;;;;;;15.20;8.43;;;;;;;18.41;98.82;100997.84;2080568;28;20029;-69
2023/09/18 02:48:08;;;;;;;17.15;8.57;;;;;;;18.41;98.74;100998.69;2087839;28;20032;-69
2023/09/18 02:49:11;;;;;;;16.10;9.25;;;;;;;18.41;98.99;101006.03;2081517;28;20034;-70
2023/09/18 02:50:15;;;;;;;15.38;8.63;;;;;;;18.41;99.04;101000.56;2071835;28;20043;-70
2023/09/18 02:51:18;;;;;;;13.48;8.35;;;;;;;18.40;98.93;101001.72;2056483;28;20113;-69
2023/09/18 02:52:20;;;;;;;17.38;8.93;;;;;;;18.39;99.12;100998.19;2064241;28;20933;-69
2023/09/18 02:53:22;;;;;;;13.27;8.05;;;;;;;18.39;99.32;100998.19;2088705;28;20118;-69
2023/09/18 02:54:25;;;;;;;13.95;8.35;;;;;;;18.39;99.16;100997.41;2080559;28;20068;-70
2023/09/18 02:55:28;;;;;;;13.68;8.40;;;;;;;18.40;99.00;100997.06;2072927;28;20027;-69
2023/09/18 02:56:31;;;;;;;13.10;8.30;;;;;;;18.40;99.13;100997.06;2080261;28;20037;-69
2023/09/18 02:57:33;;;;;;;13.60;8.48;;;;;;;18.40;99.06;100986.16;2064361;28;20142;-69
2023/09/18 02:58:35;;;;;;;14.40;8.40;;;;;;;18.40;99.02;100985.38;2072942;28;20050;-69
2023/09/18 02:59:37;;;;;;;14.40;7.82;;;;;;;18.41;99.05;100984.25;2088331;28;20021;-70
2023/09/18 03:00:45;;;;;;;14.23;8.35;;;;;;;18.42;98.94;100988.59;2080949;28;20066;-70
2023/09/18 03:01:47;;;;;;;14.27;7.80;;;;;;;18.41;98.91;100982.34;2072488;28;20062;-70
2023/09/18 03:02:49;;;;;;;12.88;7.55;;;;;;;18.43;98.91;100990.19;2056079;28;20929;-69
2023/09/18 03:03:53;;;;;;;13.15;7.95;;;;;;;18.44;98.83;100991.78;2064609;28;20038;-69
2023/09/18 03:04:54;;;;;;;11.35;7.65;;;;;;;18.44;98.63;100987.16;2064474;28;21282;-70
2023/09/18 03:06:04;;;;;;;15.45;8.02;;;;;;;18.45;98.60;100982.50;2074883;28;20101;-69
2023/09/18 03:07:06;;;;;;;12.57;7.38;;;;;;;18.47;98.63;100991.13;2076189;28;20863;-70
2023/09/18 03:08:08;;;;;;;13.50;8.05;;;;;;;18.47;98.46;100978.34;2080289;28;20022;-70
2023/09/18 03:09:10;;;;;;;11.80;7.05;;;;;;;18.48;98.44;100979.13;2056055;28;20041;-70
2023/09/18 03:10:15;;;;;;;15.38;8.15;;;;;;;18.46;98.49;100974.00;2056748;28;20039;-70
2023/09/18 03:11:17;;;;;;;13.27;7.40;;;;;;;18.49;98.29;100978.81;2063690;28;20148;-70
2023/09/18 03:12:19;;;;;;;12.88;7.47;;;;;;;18.50;98.22;100980.41;2061635;28;20027;-70
2023/09/18 03:13:22;;;;;;;16.52;8.32;;;;;;;18.51;98.26;100975.78;2071523;28;20027;-70
2023/09/18 03:14:23;;;;;;;14.00;7.45;;;;;;;18.49;98.27;100973.34;2060777;28;20038;-70
2023/09/18 03:15:25;;;;;;;12.88;7.80;;;;;;;18.52;98.08;100977.38;2063920;28;20042;-70
2023/09/18 03:16:33;;;;;;;17.63;7.07;;;;;;;18.52;97.99;100977.38;2065611;28;20030;-70
2023/09/18 03:17:35;;;;;;;12.93;7.30;;;;;;;18.53;97.98;100971.56;2064698;28;20027;-70
2023/09/18 03:18:58;;;;;;;14.55;8.20;;;;;;;18.53;97.79;100970.78;2064038;28;20031;-70
2023/09/18 03:20:00;;;;;;;12.23;7.50;;;;;;;18.54;97.82;100969.69;2064322;28;20057;-69
2023/09/18 03:21:05;;;;;;;11.10;7.47;;;;;;;18.55;97.69;100971.28;2057411;28;20086;-70
2023/09/18 03:22:15;;;;;;;15.80;7.60;;;;;;;18.55;97.72;100968.56;2058125;28;20866;-70
2023/09/18 03:23:36;;;;;;;13.18;7.38;;;;;;;18.55;97.69;100971.28;2075409;28;20026;-70
2023/09/18 03:24:38;;;;;;;13.23;7.65;;;;;;;18.53;97.84;100965.34;2081419;28;20026;-70
2023/09/18 03:25:39;;;;;;;14.73;7.75;;;;;;;18.52;97.76;100969.19;2073382;28;20042;-70
2023/09/18 03:26:44;;;;;;;12.73;8.05;;;;;;;18.52;97.87;100969.19;2073277;28;20058;-70
2023/09/18 03:27:48;;;;;;;14.45;7.88;;;;;;;18.52;97.78;100971.91;2073808;28;20074;-70
2023/09/18 03:28:50;;;;;;;14.85;7.68;;;;;;;18.52;97.79;100966.47;2077948;28;20208;-70
2023/09/18 03:30:17;;;;;;;14.40;7.82;;;;;;;18.54;97.67;100964.25;2066216;28;20034;-69
2023/09/18 03:31:20;;;;;;;16.67;8.82;;;;;;;18.55;97.65;100962.31;2079406;28;20120;-69
2023/09/18 03:32:25;;;;;;;13.63;7.78;;;;;;;18.54;97.70;100969.69;2086390;28;20068;-69
2023/09/18 03:33:26;;;;;;;13.20;7.93;;;;;;;18.55;97.60;100962.31;2073783;28;20820;-69
2023/09/18 03:34:28;;;;;;;15.27;7.43;;;;;;;18.56;97.47;100961.97;2072442;28;20049;-69
2023/09/18 03:35:37;;;;;;;13.30;8.20;;;;;;;18.57;97.60;100960.03;2081642;28;20022;-69
2023/09/18 03:36:41;;;;;;;12.98;8.10;;;;;;;18.57;97.41;100958.16;2072979;28;20176;-70
2023/09/18 03:37:53;;;;;;;11.57;7.40;;;;;;;18.56;97.35;100956.53;2073325;28;20077;-69
2023/09/18 03:39:03;;;;;;;12.80;7.78;;;;;;;18.57;97.33;100958.16;2065404;28;20060;-69
2023/09/18 03:40:13;;;;;;;15.57;8.00;;;;;;;18.57;97.21;100951.88;2065222;28;20034;-70
2023/09/18 03:41:15;;;;;;;14.38;7.32;;;;;;;18.58;97.30;100957.00;2075137;28;20058;-69
2023/09/18 03:42:17;;;;;;;12.35;7.63;;;;;;;18.56;97.33;100951.06;2065066;28;20867;-70
2023/09/18 03:43:24;;;;;;;14.05;6.90;;;;;;;18.57;97.37;100952.69;2066019;28;20031;-69
2023/09/18 03:44:28;;;;;;;14.30;8.30;;;;;;;18.56;97.34;100947.56;2064514;28;20019;-69
2023/09/18 03:45:32;;;;;;;13.05;7.07;;;;;;;18.57;97.25;100940.97;2070508;28;20861;-69
2023/09/18 03:46:39;;;;;;;11.90;7.18;;;;;;;18.58;97.16;100942.59;2080872;28;20041;-69
2023/09/18 03:47:42;;;;;;;14.80;7.47;;;;;;;18.56;97.22;100942.13;2071907;28;20048;-70
2023/09/18 03:48:46;;;;;;;13.45;8.10;;;;;;;18.56;97.25;100942.13;2072702;28;20100;-70
2023/09/18 03:49:48;;;;;;;12.05;7.07;;;;;;;18.56;97.23;100945.63;2080914;28;20089;-70
2023/09/18 03:50:52;;;;;;;10.98;7.50;;;;;;;18.56;97.12;100945.63;2080112;28;20768;-70
2023/09/18 03:51:54;;;;;;;12.23;7.38;;;;;;;18.56;96.89;100934.75;2056694;28;20150;-70
2023/09/18 03:53:00;;;;;;;13.68;7.53;;;;;;;18.56;97.21;100940.19;2079665;28;21046;-70
2023/09/18 03:54:06;;;;;;;12.60;7.25;;;;;;;18.58;97.01;100939.88;2088905;28;20777;-69
2023/09/18 03:55:08;;;;;;;14.82;7.82;;;;;;;18.59;96.91;100933.31;2073714;28;20802;-69
2023/09/18 03:56:15;;;;;;;12.35;8.05;;;;;;;18.58;96.89;100939.88;2079208;28;20077;-69
2023/09/18 03:57:36;;;;;;;13.50;8.27;;;;;;;18.58;96.87;100932.50;2081257;28;20041;-69
2023/09/18 03:58:41;;;;;;;13.18;7.55;;;;;;;18.58;96.81;100932.50;2096065;28;20748;-69
2023/09/18 03:59:43;;;;;;;10.75;7.25;;;;;;;18.58;96.83;100932.50;2083039;28;20037;-69
2023/09/18 04:00:45;;;;;;;13.10;6.80;;;;;;;18.58;96.72;100935.22;2072434;28;20026;-69
2023/09/18 04:01:47;;;;;;;12.18;7.72;;;;;;;18.57;96.74;100921.91;2072180;28;20051;-69
2023/09/18 04:02:49;;;;;;;10.98;7.53;;;;;;;18.58;96.76;100926.25;2071359;28;20162;-69
2023/09/18 04:03:54;;;;;;;11.95;7.70;;;;;;;18.56;96.85;100929.28;2071866;28;20116;-69
2023/09/18 04:04:58;;;;;;;11.20;7.00;;;;;;;18.55;96.81;100924.97;2073154;28;20169;-69
2023/09/18 04:06:03;;;;;;;10.73;7.10;;;;;;;18.54;96.78;100920.66;2071763;28;20153;-69
2023/09/18 04:07:28;;;;;;;9.93;6.72;;;;;;;18.55;96.81;100922.25;2056528;28;20031;-69
2023/09/18 04:08:30;;;;;;;12.65;7.40;;;;;;;18.54;96.81;100920.66;2069871;28;20750;-69
2023/09/18 04:09:34;;;;;;;13.75;7.50;;;;;;;18.54;96.67;100912.50;2080634;28;20880;-69
2023/09/18 04:10:39;;;;;;;12.65;7.55;;;;;;;18.53;96.78;100919.84;2080734;28;21248;-69
2023/09/18 04:11:43;;;;;;;11.18;7.50;;;;;;;18.53;96.87;100910.88;2080089;28;20038;-69
2023/09/18 04:12:47;;;;;;;13.70;7.20;;;;;;;18.52;96.82;100912.00;2078325;28;20946;-69
2023/09/18 04:13:52;;;;;;;13.45;8.05;;;;;;;18.53;96.80;100905.44;2080404;28;20026;-69
2023/09/18 04:15:00;;;;;;;12.02;7.28;;;;;;;18.53;96.77;100908.16;2076394;28;20073;-69
2023/09/18 04:16:07;;;;;;;14.15;7.90;;;;;;;18.50;96.84;100906.06;2073328;28;20050;-69
2023/09/18 04:17:09;;;;;;;11.23;7.28;;;;;;;18.50;96.85;100895.19;2081138;28;20026;-69
2023/09/18 04:18:12;;;;;;;13.38;7.60;;;;;;;18.49;97.00;100902.56;2086676;28;20037;-69
2023/09/18 04:19:14;;;;;;;11.68;7.40;;;;;;;18.48;97.02;100900.19;2081305;28;20112;-69
2023/09/18 04:20:18;;;;;;;11.57;7.38;;;;;;;18.49;97.09;100899.03;2081547;28;20042;-69
2023/09/18 04:21:21;;;;;;;10.40;6.78;;;;;;;18.47;97.14;100898.56;2073513;28;20030;-69
2023/09/18 04:22:49;;;;;;;12.05;7.50;;;;;;;18.47;97.06;100901.28;2081301;28;20068;-69
2023/09/18 04:24:01;;;;;;;10.02;7.10;;;;;;;18.47;97.22;100896.66;2077855;28;20091;-69
2023/09/18 04:25:05;;;;;;;15.30;6.97;;;;;;;18.47;97.04;100893.94;2064966;28;20829;-69
2023/09/18 04:26:14;;;;;;;11.93;6.85;;;;;;;18.47;97.07;100887.66;2066381;28;20026;-69
2023/09/18 04:27:26;;;;;;;10.90;6.88;;;;;;;18.47;97.07;100893.94;2075422;28;20038;-69
2023/09/18 04:28:31;;;;;;;10.93;6.90;;;;;;;18.48;97.05;100889.28;2074292;28;20073;-69
2023/09/18 04:29:34;;;;;;;13.13;7.10;;;;;;;18.47;97.00;100890.38;2073465;28;20057;-69
2023/09/18 04:30:37;;;;;;;15.25;7.13;;;;;;;18.47;96.77;100893.09;2064812;28;20027;-69
2023/09/18 04:31:39;;;;;;;12.10;7.45;;;;;;;18.49;96.91;100880.78;2065267;28;20051;-70
2023/09/18 04:32:44;;;;;;;12.52;7.53;;;;;;;18.49;96.79;100888.94;2081057;28;20026;-69
2023/09/18 04:33:46;;;;;;;13.52;7.03;;;;;;;18.49;96.70;100880.78;2065264;28;20030;-69
2023/09/18 04:34:50;;;;;;;13.13;7.05;;;;;;;18.50;96.72;100881.56;2065645;28;20818;-69
2023/09/18 04:35:52;;;;;;;12.73;7.40;;;;;;;18.49;96.69;100878.06;2080981;28;20026;-69
2023/09/18 04:36:58;;;;;;;13.07;7.38;;;;;;;18.49;96.87;100877.25;2072972;28;20038;-69
2023/09/18 04:38:03;;;;;;;12.30;6.80;;;;;;;18.49;96.52;100874.53;2066242;28;20039;-69
2023/09/18 04:39:05;;;;;;;11.50;6.68;;;;;;;18.48;96.64;100871.03;2072905;28;20026;-70
2023/09/18 04:40:10;;;;;;;13.30;7.63;;;;;;;18.47;96.68;100869.44;2073291;28;21015;-70
2023/09/18 04:41:18;;;;;;;12.10;7.00;;;;;;;18.48;96.87;100876.47;2072775;28;20038;-70
2023/09/18 04:42:22;;;;;;;11.07;6.35;;;;;;;18.47;96.90;100872.16;2067062;28;20129;-70
2023/09/18 04:43:29;;;;;;;10.38;6.63;;;;;;;18.47;96.91;100874.06;2065091;28;20858;-70
2023/09/18 04:44:31;;;;;;;10.90;7.25;;;;;;;18.46;96.95;100872.47;2066627;28;20023;-70
2023/09/18 04:45:36;;;;;;;10.77;7.32;;;;;;;18.46;97.13;100869.75;2064395;28;20792;-70
2023/09/18 04:46:37;;;;;;;11.85;7.32;;;;;;;18.46;97.24;100872.47;2066312;28;20043;-69
2023/09/18 04:47:49;;;;;;;11.00;6.63;;;;;;;18.45;97.31;100865.44;2075706;28;20133;-69
2023/09/18 04:48:54;;;;;;;11.65;7.07;;;;;;;18.47;97.16;100871.31;2083107;28;20018;-69
2023/09/18 04:49:55;;;;;;;13.25;7.18;;;;;;;18.47;97.21;100865.88;2066050;28;20027;-69
2023/09/18 04:51:03;;;;;;;10.65;7.03;;;;;;;18.46;97.14;100864.28;2075559;28;20033;-69
2023/09/18 04:52:07;;;;;;;13.32;7.43;;;;;;;18.46;97.14;100865.09;2081568;28;20030;-72
2023/09/18 04:53:09;;;;;;;11.48;6.80;;;;;;;18.47;97.22;100865.88;2066543;28;20046;-67
2023/09/18 04:54:12;;;;;;;13.40;7.10;;;;;;;18.48;97.24;100867.50;2078154;28;20845;-71
2023/09/18 04:55:13;;;;;;;10.82;6.55;;;;;;;18.48;97.05;100867.50;2074011;28;20789;-70
2023/09/18 04:56:16;;;;;;;11.32;6.95;;;;;;;18.49;97.23;100869.09;2069185;28;20904;-70
2023/09/18 04:57:22;;;;;;;15.93;7.35;;;;;;;18.48;97.27;100862.06;2075867;28;20034;-69